createdAt,value
2019-01-31T00:00:30.627Z,80.00
2019-01-31T00:04:19.319Z,80.17
2019-01-31T00:08:45.927Z,80.35
2019-01-31T00:11:58.272Z,80.26
2019-01-31T00:15:20.383Z,80.31
2019-01-31T00:18:55.718Z,80.15
2019-01-31T00:23:00.984Z,80.53
2019-01-31T00:27:00.435Z,80.62
2019-01-31T00:30:17.370Z,80.70
2019-01-31T00:34:04.331Z,80.61
2019-01-31T00:37:49.179Z,80.29
2019-01-31T00:41:36.619Z,80.10
2019-01-31T00:45:06.224Z,80.01
2019-01-31T00:48:53.697Z,79.48
2019-01-31T00:52:54.495Z,79.53
2019-01-31T00:56:53.703Z,79.67
2019-01-31T01:00:25.480Z,80.14
2019-01-31T01:04:31.432Z,79.66
2019-01-31T01:08:29.470Z,79.47
2019-01-31T01:11:58.557Z,79.29
2019-01-31T01:15:20.874Z,79.00
2019-01-31T01:19:07.985Z,78.79
2019-01-31T01:22:32.623Z,79.26
2019-01-31T01:26:08.093Z,79.21
2019-01-31T01:29:53.864Z,79.30
2019-01-31T01:33:18.409Z,79.23
2019-01-31T01:36:41.710Z,79.21
2019-01-31T01:40:31.037Z,78.87
2019-01-31T01:44:00.174Z,78.78
2019-01-31T01:47:32.214Z,78.45
2019-01-31T01:51:08.957Z,78.15
2019-01-31T01:54:54.593Z,78.53
2019-01-31T01:58:22.214Z,78.64
2019-01-31T02:02:17.271Z,78.85
2019-01-31T02:06:00.592Z,78.62
2019-01-31T02:09:34.800Z,78.60
2019-01-31T02:13:09.612Z,78.93
2019-01-31T02:16:45.702Z,78.93
2019-01-31T02:20:23.893Z,78.32
2019-01-31T02:24:02.894Z,78.60
2019-01-31T02:27:24.557Z,78.62
2019-01-31T02:30:55.129Z,78.05
2019-01-31T02:34:25.493Z,78.31
2019-01-31T02:38:08.147Z,77.85
2019-01-31T02:41:52.915Z,78.27
2019-01-31T02:45:52.110Z,78.64
2019-01-31T02:49:36.665Z,78.67
2019-01-31T02:53:29.893Z,78.71
2019-01-31T02:57:19.891Z,78.05
2019-01-31T03:01:04.211Z,78.15
2019-01-31T03:04:48.540Z,78.41
2019-01-31T03:08:38.617Z,78.81
2019-01-31T03:12:14.266Z,79.83
2019-01-31T03:15:52.997Z,79.03
2019-01-31T03:19:42.494Z,78.99
2019-01-31T03:23:26.837Z,79.25
2019-01-31T03:27:23.348Z,78.40
2019-01-31T03:31:05.492Z,76.71
2019-01-31T03:34:44.270Z,76.55
2019-01-31T03:38:30.469Z,76.82
2019-01-31T03:41:52.049Z,77.24
2019-01-31T03:45:16.286Z,76.41
2019-01-31T03:48:41.975Z,76.56
2019-01-31T03:52:23.366Z,76.97
2019-01-31T03:56:07.082Z,78.17
2019-01-31T03:59:21.158Z,79.58
2019-01-31T04:02:38.365Z,80.53
2019-01-31T04:06:01.891Z,79.85
2019-01-31T04:09:10.653Z,80.69
2019-01-31T04:12:17.695Z,81.28
2019-01-31T04:15:24.184Z,81.70
2019-01-31T04:18:31.142Z,81.61
2019-01-31T04:21:38.763Z,82.66
2019-01-31T04:24:45.788Z,82.79
2019-01-31T04:27:52.326Z,83.56
2019-01-31T04:30:58.863Z,82.68
2019-01-31T04:34:06.563Z,82.51
2019-01-31T04:37:13.272Z,83.03
2019-01-31T04:40:31.132Z,83.47
2019-01-31T04:43:28.579Z,84.34
2019-01-31T04:46:36.175Z,84.73
2019-01-31T04:49:42.905Z,84.90
2019-01-31T04:52:49.534Z,84.49
2019-01-31T04:55:56.441Z,84.43
2019-01-31T04:59:03.256Z,84.24
2019-01-31T05:02:09.588Z,84.40
2019-01-31T05:05:16.174Z,84.74
2019-01-31T05:08:22.771Z,84.41
2019-01-31T05:11:30.291Z,84.98
2019-01-31T05:14:36.810Z,84.72
2019-01-31T05:17:43.135Z,84.61
2019-01-31T05:20:49.889Z,85.00
2019-01-31T05:23:56.180Z,85.31
2019-01-31T05:27:04.480Z,84.57
2019-01-31T05:30:12.197Z,84.71
2019-01-31T05:33:19.069Z,85.50
2019-01-31T05:36:25.804Z,85.22
2019-01-31T05:39:32.684Z,85.00
2019-01-31T05:42:39.245Z,84.95
2019-01-31T05:45:45.910Z,85.46
2019-01-31T05:48:52.441Z,85.67
2019-01-31T05:51:59.920Z,85.26
2019-01-31T05:55:07.036Z,84.25
2019-01-31T05:58:13.958Z,85.48
2019-01-31T06:01:20.935Z,85.72
2019-01-31T06:04:27.336Z,85.43
2019-01-31T06:07:34.116Z,84.99
2019-01-31T06:10:40.309Z,85.42
2019-01-31T06:13:47.065Z,85.46
2019-01-31T06:16:53.544Z,85.97
2019-01-31T06:20:00.098Z,85.03
2019-01-31T06:23:07.202Z,86.18
2019-01-31T06:26:14.239Z,85.85
2019-01-31T06:29:21.026Z,85.70
2019-01-31T06:32:28.021Z,85.25
2019-01-31T06:35:34.632Z,85.48
2019-01-31T06:38:41.542Z,85.85
2019-01-31T06:41:49.093Z,86.30
2019-01-31T06:44:56.913Z,86.68
2019-01-31T06:48:05.185Z,86.67
2019-01-31T06:51:12.232Z,86.01
2019-01-31T06:54:18.636Z,86.57
2019-01-31T06:57:25.097Z,86.90
2019-01-31T07:00:31.806Z,87.14
2019-01-31T07:03:38.301Z,87.45
2019-01-31T07:06:45.062Z,86.79
2019-01-31T07:09:51.428Z,87.23
2019-01-31T07:12:57.985Z,87.75
2019-01-31T07:16:05.405Z,87.23
2019-01-31T07:19:11.891Z,86.65
2019-01-31T07:22:18.715Z,87.11
2019-01-31T07:25:26.406Z,86.73
2019-01-31T07:28:50.860Z,87.36
2019-01-31T07:31:57.584Z,87.04
2019-01-31T07:35:04.845Z,87.09
2019-01-31T07:38:11.228Z,86.60
2019-01-31T07:41:18.319Z,87.35
2019-01-31T07:44:25.104Z,85.40
2019-01-31T07:47:32.080Z,86.38
2019-01-31T07:50:39.201Z,86.68
2019-01-31T07:53:46.162Z,86.75
2019-01-31T07:56:52.702Z,86.12
2019-01-31T07:59:59.264Z,86.09
2019-01-31T08:03:06.904Z,87.06
2019-01-31T08:06:13.799Z,86.71
2019-01-31T08:09:20.351Z,86.33
2019-01-31T08:12:27.431Z,85.34
2019-01-31T08:15:33.936Z,84.74
2019-01-31T08:18:40.309Z,84.82
2019-01-31T08:21:47.840Z,85.81
2019-01-31T08:24:54.544Z,84.06
2019-01-31T08:28:01.807Z,83.03
2019-01-31T08:31:08.380Z,84.07
2019-01-31T08:34:15.290Z,85.51
2019-01-31T08:37:24.669Z,86.31
2019-01-31T08:40:31.790Z,83.20
2019-01-31T08:43:38.513Z,82.78
2019-01-31T08:46:45.021Z,82.94
2019-01-31T08:49:51.922Z,82.97
2019-01-31T08:52:58.970Z,83.76
2019-01-31T08:56:05.792Z,83.57
2019-01-31T08:59:12.119Z,84.46
2019-01-31T09:02:18.953Z,83.34
2019-01-31T09:05:25.543Z,82.81
2019-01-31T09:08:32.643Z,82.48
2019-01-31T09:11:39.315Z,82.04
2019-01-31T09:14:46.103Z,81.24
2019-01-31T09:17:52.482Z,80.79
2019-01-31T09:21:28.732Z,78.95
2019-01-31T09:25:18.586Z,76.92
2019-01-31T09:29:07.465Z,76.47
2019-01-31T09:32:49.577Z,73.81
2019-01-31T09:36:43.159Z,70.94
2019-01-31T09:40:21.075Z,70.02
2019-01-31T09:43:53.110Z,67.45
2019-01-31T09:47:44.367Z,68.50
2019-01-31T09:51:17.028Z,67.66
2019-01-31T09:54:41.888Z,67.92
2019-01-31T09:58:23.531Z,66.22
2019-01-31T10:02:02.424Z,65.86
2019-01-31T10:06:05.279Z,63.41
2019-01-31T10:09:46.042Z,63.20
2019-01-31T10:13:54.757Z,61.78
2019-01-31T10:17:33.991Z,61.62
2019-01-31T10:21:01.010Z,61.67
2019-01-31T10:24:59.419Z,62.68
2019-01-31T10:28:42.396Z,63.12
2019-01-31T10:32:31.016Z,62.09
2019-01-31T10:36:00.492Z,60.27
2019-01-31T10:39:35.482Z,59.51
2019-01-31T10:42:52.978Z,59.72
2019-01-31T10:46:06.748Z,57.93
2019-01-31T10:50:12.255Z,58.12
2019-01-31T10:53:50.492Z,56.69
2019-01-31T10:57:26.436Z,58.49
2019-01-31T11:01:05.459Z,57.43
2019-01-31T11:04:48.550Z,56.70
2019-01-31T11:09:08.048Z,57.50
2019-01-31T11:13:00.218Z,55.57
2019-01-31T11:16:48.656Z,55.98
2019-01-31T11:20:17.177Z,57.40
2019-01-31T11:23:55.108Z,55.16
2019-01-31T11:28:08.167Z,57.24
2019-01-31T11:31:56.075Z,56.96
2019-01-31T11:35:39.007Z,56.04
2019-01-31T11:39:20.639Z,56.65
2019-01-31T11:43:26.632Z,56.59
2019-01-31T11:47:04.396Z,56.45
2019-01-31T11:50:43.872Z,55.58
2019-01-31T11:54:43.888Z,56.61
2019-01-31T11:58:23.112Z,55.91
2019-01-31T12:01:29.790Z,55.25
2019-01-31T12:04:36.482Z,57.26
2019-01-31T12:07:43.182Z,56.50
2019-01-31T12:10:49.588Z,57.14
2019-01-31T12:13:56.270Z,56.08
2019-01-31T12:17:02.799Z,56.83
2019-01-31T12:20:13.516Z,56.13
2019-01-31T12:23:20.463Z,57.12
2019-01-31T12:26:26.811Z,57.28
2019-01-31T12:29:33.465Z,58.73
2019-01-31T12:32:39.893Z,57.65
2019-01-31T12:35:47.315Z,59.28
2019-01-31T12:38:54.956Z,55.41
2019-01-31T12:42:01.591Z,58.20
2019-01-31T12:45:10.622Z,58.38
2019-01-31T12:48:18.200Z,57.76
2019-01-31T12:51:24.757Z,57.89
2019-01-31T12:54:31.157Z,57.78
2019-01-31T12:57:37.718Z,58.31
2019-01-31T13:00:44.472Z,57.87
2019-01-31T13:03:50.985Z,57.90
2019-01-31T13:06:59.383Z,58.46
2019-01-31T13:10:06.173Z,58.53
2019-01-31T13:13:12.908Z,58.86
2019-01-31T13:16:19.439Z,58.75
2019-01-31T13:19:25.966Z,58.24
2019-01-31T13:22:32.956Z,58.72
2019-01-31T13:25:39.545Z,58.15
2019-01-31T13:28:46.739Z,59.79
2019-01-31T13:31:53.564Z,58.88
2019-01-31T13:35:00.223Z,58.81
2019-01-31T13:38:07.339Z,59.03
2019-01-31T13:41:14.269Z,56.97
2019-01-31T13:44:21.252Z,58.63
2019-01-31T13:47:27.863Z,59.79
2019-01-31T13:50:34.803Z,57.91
2019-01-31T13:53:41.430Z,57.59
2019-01-31T13:56:48.175Z,59.01
2019-01-31T13:59:55.012Z,59.08
2019-01-31T14:03:01.506Z,60.51
2019-01-31T14:06:09.101Z,60.07
2019-01-31T14:09:16.187Z,60.37
2019-01-31T14:12:23.405Z,59.44
2019-01-31T14:15:33.904Z,58.87
2019-01-31T14:18:40.094Z,59.04
2019-01-31T14:21:50.672Z,58.94
2019-01-31T14:24:58.788Z,58.62
2019-01-31T14:28:05.979Z,59.14
2019-01-31T14:31:12.916Z,58.75
2019-01-31T14:34:19.601Z,61.98
2019-01-31T14:37:26.066Z,60.08
2019-01-31T14:40:33.141Z,61.65
2019-01-31T14:43:39.498Z,59.34
2019-01-31T14:46:46.391Z,61.13
2019-01-31T14:49:53.624Z,59.61
2019-01-31T14:53:02.570Z,61.05
2019-01-31T14:56:09.848Z,58.94
2019-01-31T14:59:17.219Z,59.26
2019-01-31T15:02:24.630Z,60.56
2019-01-31T15:05:33.098Z,59.18
2019-01-31T15:08:40.691Z,61.01
2019-01-31T15:11:49.005Z,59.27
2019-01-31T15:14:55.805Z,59.49
2019-01-31T15:18:02.467Z,59.40
2019-01-31T15:21:09.671Z,61.62
2019-01-31T15:24:16.811Z,60.40
2019-01-31T15:27:23.420Z,61.04
2019-01-31T15:30:31.965Z,60.84
2019-01-31T15:33:38.130Z,61.14
2019-01-31T15:36:44.672Z,62.68
2019-01-31T15:39:52.188Z,61.83
2019-01-31T15:42:59.010Z,61.85
2019-01-31T15:46:08.875Z,61.87
2019-01-31T15:49:15.703Z,62.39
2019-01-31T15:52:22.292Z,62.77
2019-01-31T15:55:29.125Z,62.71
2019-01-31T15:58:35.904Z,63.99
2019-01-31T16:01:43.150Z,63.67
2019-01-31T16:04:49.836Z,63.16
2019-01-31T16:07:56.730Z,63.47
2019-01-31T16:11:03.225Z,67.77
2019-01-31T16:14:09.591Z,66.31
2019-01-31T16:17:18.601Z,67.56
2019-01-31T16:20:25.396Z,68.26
2019-01-31T16:23:32.459Z,68.33
2019-01-31T16:26:39.334Z,68.86
2019-01-31T16:29:47.997Z,69.17
2019-01-31T16:32:54.737Z,69.29
2019-01-31T16:36:01.237Z,70.16
2019-01-31T16:39:09.915Z,70.77
2019-01-31T16:42:17.257Z,70.26
2019-01-31T16:45:23.844Z,71.11
2019-01-31T16:48:30.458Z,71.78
2019-01-31T16:51:40.167Z,72.51
2019-01-31T16:54:46.891Z,72.49
2019-01-31T16:57:54.203Z,73.28
2019-01-31T17:01:01.189Z,73.98
2019-01-31T17:04:08.113Z,74.39
2019-01-31T17:07:14.854Z,74.20
2019-01-31T17:10:21.981Z,75.67
2019-01-31T17:13:29.541Z,76.40
2019-01-31T17:16:36.745Z,76.61
2019-01-31T17:19:44.319Z,76.52
2019-01-31T17:22:51.181Z,76.52
2019-01-31T17:25:58.531Z,77.24
2019-01-31T17:29:05.200Z,77.62
2019-01-31T17:32:11.821Z,77.90
2019-01-31T17:35:18.547Z,77.87
2019-01-31T17:38:25.316Z,78.01
2019-01-31T17:41:32.720Z,78.55
2019-01-31T17:44:39.421Z,78.51
2019-01-31T17:47:46.230Z,78.89
2019-01-31T17:50:53.060Z,78.39
2019-01-31T17:54:01.660Z,79.24
2019-01-31T17:57:08.570Z,79.05
2019-01-31T18:00:46.583Z,79.11
2019-01-31T18:03:53.275Z,79.34
2019-01-31T18:07:00.453Z,79.17
2019-01-31T18:10:10.972Z,80.01
2019-01-31T18:13:21.218Z,79.98
2019-01-31T18:16:27.726Z,79.63
2019-01-31T18:19:34.301Z,79.32
2019-01-31T18:22:41.286Z,79.33
2019-01-31T18:25:47.837Z,79.70
2019-01-31T18:28:54.394Z,79.78
2019-01-31T18:32:01.369Z,79.84
2019-01-31T18:35:09.460Z,79.68
2019-01-31T18:38:15.863Z,79.91
2019-01-31T18:41:22.856Z,79.90
2019-01-31T18:44:29.849Z,79.99
2019-01-31T18:47:36.533Z,79.97
2019-01-31T18:50:44.370Z,80.16
2019-01-31T18:53:53.281Z,80.10
2019-01-31T18:57:00.613Z,80.54
2019-01-31T19:00:14.142Z,80.46
2019-01-31T19:03:20.986Z,80.82
2019-01-31T19:06:28.132Z,81.01
2019-01-31T19:09:35.009Z,80.53
2019-01-31T19:12:42.387Z,80.53
2019-01-31T19:15:49.033Z,80.80
2019-01-31T19:18:55.637Z,80.73
2019-01-31T19:22:02.572Z,80.70
2019-01-31T19:25:09.429Z,81.07
2019-01-31T19:28:16.374Z,81.26
2019-01-31T19:31:23.079Z,80.75
2019-01-31T19:34:31.362Z,81.21
2019-01-31T19:37:38.516Z,81.06
2019-01-31T19:40:47.850Z,81.19
2019-01-31T19:43:54.882Z,81.63
2019-01-31T19:47:01.652Z,82.13
2019-01-31T19:50:09.018Z,81.43
2019-01-31T19:53:16.179Z,81.36
2019-01-31T19:56:24.441Z,81.06
2019-01-31T19:59:32.580Z,81.31
2019-01-31T20:02:39.975Z,82.69
2019-01-31T20:05:52.441Z,82.63
2019-01-31T20:08:59.052Z,83.70
2019-01-31T20:12:05.981Z,82.65
2019-01-31T20:15:13.774Z,82.39
2019-01-31T20:18:22.941Z,82.77
2019-01-31T20:21:29.388Z,83.13
2019-01-31T20:24:36.594Z,83.48
2019-01-31T20:27:45.759Z,83.10
2019-01-31T20:30:52.773Z,82.58
2019-01-31T20:34:02.054Z,82.31
2019-01-31T20:37:11.332Z,83.08
2019-01-31T20:40:23.616Z,83.10
2019-01-31T20:43:30.609Z,83.25
2019-01-31T20:46:40.184Z,83.66
2019-01-31T20:49:46.203Z,83.91
2019-01-31T20:52:53.141Z,83.50
2019-01-31T20:56:00.071Z,83.62
2019-01-31T20:59:07.013Z,83.79
2019-01-31T21:02:14.029Z,83.67
2019-01-31T21:05:22.306Z,84.22
2019-01-31T21:08:30.809Z,83.76
2019-01-31T21:11:38.436Z,83.79
2019-01-31T21:14:45.870Z,83.11
2019-01-31T21:17:52.582Z,83.41
2019-01-31T21:20:59.542Z,84.40
2019-01-31T21:24:06.377Z,85.16
2019-01-31T21:27:13.019Z,85.09
2019-01-31T21:30:25.497Z,84.20
2019-01-31T21:33:32.829Z,84.00
2019-01-31T21:36:40.116Z,84.58
2019-01-31T21:39:46.871Z,84.92
2019-01-31T21:42:53.487Z,85.58
2019-01-31T21:46:00.326Z,85.47
2019-01-31T21:49:07.124Z,84.95
2019-01-31T21:52:13.917Z,84.76
2019-01-31T21:55:20.452Z,84.84
2019-01-31T21:58:26.850Z,85.45
2019-01-31T22:01:33.919Z,84.81
2019-01-31T22:04:42.160Z,84.45
2019-01-31T22:07:50.480Z,84.25
2019-01-31T22:10:57.936Z,83.82
2019-01-31T22:14:05.312Z,84.60
2019-01-31T22:17:14.780Z,84.48
2019-01-31T22:20:20.650Z,84.51
2019-01-31T22:23:27.646Z,85.12
2019-01-31T22:26:34.980Z,84.65
2019-01-31T22:29:41.549Z,85.04
2019-01-31T22:32:48.024Z,85.00
2019-01-31T22:35:56.703Z,84.72
2019-01-31T22:39:03.395Z,84.60
2019-01-31T22:42:10.844Z,84.35
2019-01-31T22:45:18.937Z,85.73
2019-01-31T22:48:25.355Z,85.72
2019-01-31T22:51:31.999Z,84.65
2019-01-31T22:54:38.839Z,85.03
2019-01-31T22:57:45.507Z,84.84
2019-01-31T23:01:26.269Z,85.09
2019-01-31T23:04:33.324Z,84.95
2019-01-31T23:07:39.719Z,85.38
2019-01-31T23:10:46.409Z,85.07
2019-01-31T23:13:53.100Z,84.74
2019-01-31T23:16:59.728Z,85.05
2019-01-31T23:20:07.615Z,85.45
2019-01-31T23:23:13.759Z,84.88
2019-01-31T23:26:20.479Z,85.12
2019-01-31T23:29:27.421Z,85.50
2019-01-31T23:32:33.871Z,85.68
2019-01-31T23:35:40.666Z,85.85
2019-01-31T23:38:47.155Z,85.92
2019-01-31T23:41:53.563Z,86.05
2019-01-31T23:44:59.905Z,86.20
2019-01-31T23:48:06.342Z,86.13
2019-01-31T23:51:12.982Z,86.20
2019-01-31T23:54:19.206Z,86.40
2019-01-31T23:57:25.511Z,86.43
